Date,TemperatureHighF,TemperatureAvgF,TemperatureLowF,DewpointHighF,DewpointAvgF,DewpointLowF,HumidityHigh,HumidityAvg,HumidityLow,PressureMaxIn,PressureMinIn,WindSpeedMaxMPH,WindSpeedAvgMPH,GustSpeedMaxMPH,PrecipitationSumIn
2013-10-1,73.2,65.3,52.9,53.7,46.0,37.9,71,52,29,29.99,29.59,0,0,0,0.00
2013-10-2,75.7,60.2,46.6,54.5,45.5,38.0,89,62,34,30.03,29.82,0,0,0,0.00
2013-10-3,60.8,58.1,55.2,57.9,55.5,53.2,93,91,88,29.93,29.83,0,0,0,0.00
2013-10-4,58.5,56.5,54.3,56.1,54.1,52.3,95,92,87,29.96,29.78,0,0,0,0.00
2013-10-5,59.7,54.0,43.2,57.7,49.6,40.5,96,85,66,29.84,29.74,0,0,0,0.00
2013-10-6,54.5,47.0,42.1,51.1,44.7,40.0,94,92,87,29.85,29.69,0,0,0,0.00
2013-10-7,65.3,52.9,43.9,49.1,44.6,41.2,90,75,49,29.97,29.83,0,0,0,0.00
2013-10-8,75.9,61.3,49.3,52.8,47.6,43.0,82,63,42,29.96,29.80,0,0,0,0.00
2013-10-9,74.8,63.2,55.8,56.4,50.9,47.6,76,65,50,30.02,29.91,0,0,0,0.00
2013-10-10,77.0,63.0,52.7,59.1,51.1,45.4,77,66,49,30.03,29.86,0,0,0,0.00
2013-10-11,73.2,64.6,56.3,61.3,55.2,50.5,83,72,57,29.86,29.61,0,0,0,0.00
2013-10-12,57.7,51.0,45.7,50.5,42.8,37.9,83,74,60,30.17,29.71,0,0,0,0.00
2013-10-13,59.0,47.8,37.6,42.5,37.7,32.9,85,69,47,30.41,30.17,0,0,0,0.00
2013-10-14,54.9,48.4,42.4,46.5,40.3,36.0,89,74,63,30.37,29.91,0,0,0,0.00
2013-10-15,53.2,50.0,45.5,51.5,47.7,43.3,94,92,89,29.91,29.65,0,0,0,0.00
2013-10-16,53.2,46.3,39.9,43.6,40.4,34.9,94,81,59,29.95,29.83,0,0,0,0.00
2013-10-17,57.4,46.2,40.1,44.9,39.8,34.7,90,79,59,29.87,29.76,0,0,0,0.00
2013-10-18,51.4,43.9,38.3,38.9,35.8,31.6,91,74,53,29.97,29.83,0,0,0,0.00
2013-10-19,47.1,39.5,34.0,40.2,34.6,29.0,88,83,73,29.83,29.68,0,0,0,0.00
2013-10-20,47.1,37.9,32.2,40.7,33.8,28.2,89,85,76,29.87,29.60,0,0,0,0.00
2013-10-21,39.6,35.0,30.6,31.6,24.9,23.0,80,67,57,29.95,29.87,0,0,0,0.00
2013-10-22,40.5,34.3,27.1,32.6,27.8,22.5,86,77,68,30.02,29.94,0,0,0,0.00
2013-10-23,38.3,34.6,32.2,30.2,26.3,22.5,84,72,59,30.09,29.98,0,0,0,0.00
2013-10-24,43.5,37.1,31.3,31.6,28.1,23.0,84,70,59,30.29,30.09,0,0,0,0.00
2013-10-25,56.7,42.9,26.4,43.0,34.4,22.4,86,73,59,30.29,29.78,0,0,0,0.00
2013-10-26,49.8,42.2,35.2,41.1,31.4,27.0,77,66,56,30.09,29.79,0,0,0,0.00
2013-10-27,55.9,41.6,30.7,38.1,31.1,25.2,81,67,50,30.11,29.80,0,0,0,0.00
2013-10-28,42.1,37.2,32.7,30.6,25.9,21.6,80,64,49,30.40,30.11,0,0,0,0.00
2013-10-29,42.6,38.0,32.7,35.7,29.7,24.6,85,72,67,30.37,30.06,0,0,0,0.00
2013-10-30,49.3,44.8,39.7,48.7,42.9,35.6,100,93,85,30.06,29.66,0,0,0,0.00
2013-10-31,48.6,42.1,39.9,48.6,40.2,37.1,100,93,87,29.66,29.41,0,0,0,0.00